createdAt,value
2018-08-28T00:02:22.107Z,96289.98
2018-08-28T00:04:51.124Z,96293.72
2018-08-28T00:07:19.859Z,96300.52
2018-08-28T00:09:48.688Z,96300.17
2018-08-28T00:12:17.331Z,96301.28
2018-08-28T00:14:46.058Z,96300.48
2018-08-28T00:17:14.750Z,96302.29
2018-08-28T00:19:43.575Z,96300.02
2018-08-28T00:22:12.699Z,96298.88
2018-08-28T00:24:41.240Z,96297.58
2018-08-28T00:27:09.931Z,96302.13
2018-08-28T00:29:38.464Z,96298.41
2018-08-28T00:32:07.125Z,96294.44
2018-08-28T00:34:36.526Z,96297.18
2018-08-28T00:37:05.252Z,96299.01
2018-08-28T00:39:33.915Z,96301.12
2018-08-28T00:42:02.667Z,96297.73
2018-08-28T00:44:31.351Z,96301.52
2018-08-28T00:46:59.992Z,96301.03
2018-08-28T00:49:28.654Z,96305.27
2018-08-28T00:51:57.352Z,96301.55
2018-08-28T00:54:26.020Z,96300.75
2018-08-28T00:56:54.804Z,96300.94
2018-08-28T00:59:23.528Z,96305.47
2018-08-28T01:01:52.376Z,96305.78
2018-08-28T01:04:21.808Z,96311.31
2018-08-28T01:06:50.808Z,96309.03
2018-08-28T01:09:20.381Z,96311.78
2018-08-28T01:11:48.965Z,96302.69
2018-08-28T01:14:17.764Z,96310.79
2018-08-28T01:16:47.318Z,96307.03
2018-08-28T01:19:16.176Z,96309.79
2018-08-28T01:21:44.901Z,96311.06
2018-08-28T01:24:13.582Z,96308.92
2018-08-28T01:26:42.188Z,96306.47
2018-08-28T01:29:10.899Z,96311.27
2018-08-28T01:31:39.588Z,96316.33
2018-08-28T01:34:08.243Z,96311.59
2018-08-28T01:36:37.024Z,96320.47
2018-08-28T01:39:06.959Z,96315.95
2018-08-28T01:41:35.524Z,96323.56
2018-08-28T01:44:04.779Z,96316.01
2018-08-28T01:46:33.520Z,96323.78
2018-08-28T01:49:02.440Z,96325.74
2018-08-28T01:51:31.698Z,96324.61
2018-08-28T01:54:00.395Z,96317.44
2018-08-28T01:56:29.116Z,96317.59
2018-08-28T01:58:57.794Z,96313.20
2018-08-28T02:01:26.639Z,96316.14
2018-08-28T02:03:55.515Z,96315.16
2018-08-28T02:06:24.402Z,96310.98
2018-08-28T02:08:53.258Z,96308.58
2018-08-28T02:11:22.149Z,96302.73
2018-08-28T02:13:51.636Z,96303.38
2018-08-28T02:16:20.486Z,96296.11
2018-08-28T02:18:49.507Z,96300.78
2018-08-28T02:21:18.799Z,96298.32
2018-08-28T02:23:47.488Z,96294.56
2018-08-28T02:26:16.155Z,96296.81
2018-08-28T02:28:44.715Z,96304.52
2018-08-28T02:31:13.916Z,96301.58
2018-08-28T02:33:42.981Z,96297.81
2018-08-28T02:36:12.227Z,96295.06
2018-08-28T02:38:40.877Z,96297.97
2018-08-28T02:41:09.559Z,96307.19
2018-08-28T02:43:38.180Z,96315.31
2018-08-28T02:46:06.871Z,96310.80
2018-08-28T02:48:35.729Z,96306.72
2018-08-28T02:51:04.427Z,96323.42
2018-08-28T02:53:33.129Z,96326.84
2018-08-28T02:56:01.907Z,96326.41
2018-08-28T02:58:30.546Z,96323.00
2018-08-28T03:00:59.076Z,96325.42
2018-08-28T03:03:27.797Z,96320.77
2018-08-28T03:05:56.560Z,96321.73
2018-08-28T03:08:25.287Z,96323.00
2018-08-28T03:10:53.935Z,96321.70
2018-08-28T03:13:22.806Z,96325.54
2018-08-28T03:15:51.605Z,96320.95
2018-08-28T03:18:20.364Z,96327.37
2018-08-28T03:20:48.906Z,96332.55
2018-08-28T03:23:18.350Z,96334.05
2018-08-28T03:25:46.977Z,96325.14
2018-08-28T03:28:16.547Z,96327.06
2018-08-28T03:30:46.060Z,96340.31
2018-08-28T03:33:14.815Z,96340.63
2018-08-28T03:35:43.577Z,96339.70
2018-08-28T03:38:12.571Z,96347.77
2018-08-28T03:40:41.633Z,96345.80
2018-08-28T03:43:12.025Z,96350.14
2018-08-28T03:45:40.700Z,96358.08
2018-08-28T03:48:09.472Z,96351.80
2018-08-28T03:50:38.908Z,96347.09
2018-08-28T03:53:07.990Z,96350.45
2018-08-28T03:55:36.800Z,96354.29
2018-08-28T03:58:05.911Z,96359.72
2018-08-28T04:00:34.667Z,96361.16
2018-08-28T04:03:04.290Z,96360.91
2018-08-28T04:05:33.192Z,96362.41
2018-08-28T04:08:01.867Z,96352.06
2018-08-28T04:10:30.656Z,96367.83
2018-08-28T04:12:59.464Z,96361.91
2018-08-28T04:15:28.167Z,96360.89
2018-08-28T04:17:57.139Z,96364.23
2018-08-28T04:20:25.907Z,96366.45
2018-08-28T04:22:55.308Z,96367.59
2018-08-28T04:25:23.944Z,96368.38
2018-08-28T04:27:52.757Z,96367.33
2018-08-28T04:30:21.463Z,96369.34
2018-08-28T04:32:50.011Z,96375.34
2018-08-28T04:35:18.637Z,96375.44
2018-08-28T04:37:47.783Z,96380.92
2018-08-28T04:40:17.008Z,96381.90
2018-08-28T04:42:46.192Z,96389.60
2018-08-28T04:45:14.761Z,96388.84
2018-08-28T04:47:43.329Z,96392.72
2018-08-28T04:50:11.936Z,96397.96
2018-08-28T04:52:41.189Z,96395.83
2018-08-28T04:55:10.025Z,96395.42
2018-08-28T04:57:38.643Z,96402.47
2018-08-28T05:00:08.052Z,96395.37
2018-08-28T05:02:38.068Z,96396.47
2018-08-28T05:05:08.986Z,96400.80
2018-08-28T05:07:37.540Z,96401.57
2018-08-28T05:10:07.028Z,96405.41
2018-08-28T05:12:35.689Z,96399.76
2018-08-28T05:15:05.560Z,96407.06
2018-08-28T05:17:34.109Z,96410.78
2018-08-28T05:20:02.966Z,96405.52
2018-08-28T05:22:31.675Z,96405.94
2018-08-28T05:25:00.567Z,96404.90
2018-08-28T05:27:30.289Z,96408.88
2018-08-28T05:29:59.500Z,96417.11
2018-08-28T05:32:28.430Z,96413.80
2018-08-28T05:34:57.468Z,96415.66
2018-08-28T05:37:26.178Z,96418.48
2018-08-28T05:39:55.262Z,96417.02
2018-08-28T05:42:24.822Z,96418.73
2018-08-28T05:44:54.220Z,96410.58
2018-08-28T05:47:22.939Z,96416.47
2018-08-28T05:49:51.847Z,96419.42
2018-08-28T05:52:20.816Z,96409.13
2018-08-28T05:54:49.686Z,96415.80
2018-08-28T05:57:18.525Z,96411.59
2018-08-28T05:59:47.819Z,96419.59
2018-08-28T06:02:17.584Z,96415.90
2018-08-28T06:04:46.353Z,96426.14
2018-08-28T06:07:14.943Z,96431.33
2018-08-28T06:09:43.743Z,96429.78
2018-08-28T06:12:12.562Z,96433.88
2018-08-28T06:14:41.695Z,96433.27
2018-08-28T06:17:10.394Z,96432.81
2018-08-28T06:19:39.132Z,96431.05
2018-08-28T06:22:08.432Z,96437.56
2018-08-28T06:24:37.865Z,96436.28
2018-08-28T06:27:06.648Z,96442.34
2018-08-28T06:29:35.804Z,96443.50
2018-08-28T06:32:04.522Z,96442.23
2018-08-28T06:34:33.256Z,96443.54
2018-08-28T06:37:02.233Z,96443.55
2018-08-28T06:39:30.886Z,96442.60
2018-08-28T06:41:59.528Z,96440.97
2018-08-28T06:44:28.377Z,96439.19
2018-08-28T06:46:56.915Z,96433.66
2018-08-28T06:49:25.810Z,96434.94
2018-08-28T06:51:54.491Z,96431.94
2018-08-28T06:54:23.200Z,96430.77
2018-08-28T06:56:51.960Z,96427.95
2018-08-28T06:59:20.732Z,96434.09
2018-08-28T07:01:50.035Z,96434.72
2018-08-28T07:04:18.892Z,96429.94
2018-08-28T07:06:47.599Z,96437.03
2018-08-28T07:09:16.273Z,96437.31
2018-08-28T07:11:44.963Z,96437.66
2018-08-28T07:14:13.644Z,96442.78
2018-08-28T07:16:42.480Z,96438.48
2018-08-28T07:22:13.552Z,96441.87
2018-08-28T07:24:42.395Z,96443.36
2018-08-28T07:27:11.074Z,96442.56
2018-08-28T07:29:39.667Z,96439.75
2018-08-28T07:32:08.220Z,96437.57
2018-08-28T07:34:36.945Z,96442.44
2018-08-28T07:37:05.772Z,96435.95
2018-08-28T07:39:35.139Z,96440.03
2018-08-28T07:42:03.702Z,96439.11
2018-08-28T07:44:32.244Z,96441.47
2018-08-28T07:47:01.684Z,96443.71
2018-08-28T07:49:30.265Z,96446.36
2018-08-28T07:51:58.827Z,96441.36
2018-08-28T07:54:27.364Z,96441.92
2018-08-28T07:56:56.115Z,96442.33
2018-08-28T07:59:24.808Z,96443.03
2018-08-28T08:01:53.495Z,96448.52
2018-08-28T08:04:22.193Z,96449.59
2018-08-28T08:06:50.844Z,96450.00
2018-08-28T08:09:19.539Z,96452.24
2018-08-28T08:11:48.844Z,96456.91
2018-08-28T08:14:17.560Z,96453.97
2018-08-28T08:16:46.227Z,96454.72
2018-08-28T08:19:14.804Z,96453.05
2018-08-28T08:21:44.183Z,96458.77
2018-08-28T08:24:13.489Z,96454.83
2018-08-28T08:26:42.254Z,96451.61
2018-08-28T08:29:10.977Z,96447.48
2018-08-28T08:31:40.259Z,96453.54
2018-08-28T08:34:09.728Z,96451.59
2018-08-28T08:36:39.175Z,96450.58
2018-08-28T08:39:09.895Z,96448.54
2018-08-28T08:41:39.041Z,96441.29
2018-08-28T08:44:08.320Z,96447.21
2018-08-28T08:46:36.976Z,96444.99
2018-08-28T08:49:05.727Z,96438.45
2018-08-28T08:51:34.391Z,96447.66
2018-08-28T08:54:03.015Z,96446.44
2018-08-28T08:56:31.556Z,96443.33
2018-08-28T08:59:00.837Z,96443.38
2018-08-28T09:01:29.483Z,96448.31
2018-08-28T09:03:58.020Z,96443.32
2018-08-28T09:06:26.663Z,96436.52
2018-08-28T09:08:55.387Z,96441.70
2018-08-28T09:11:24.639Z,96442.46
2018-08-28T09:13:53.277Z,96437.55
2018-08-28T09:16:22.791Z,96441.69
2018-08-28T09:18:51.519Z,96440.26
2018-08-28T09:21:21.579Z,96438.45
2018-08-28T09:23:50.484Z,96445.41
2018-08-28T09:26:19.018Z,96440.77
2018-08-28T09:28:47.877Z,96442.81
2018-08-28T09:31:16.904Z,96439.56
2018-08-28T09:33:46.483Z,96435.30
2018-08-28T09:36:15.124Z,96435.04
2018-08-28T09:38:43.867Z,96434.60
2018-08-28T09:41:12.723Z,96439.55
2018-08-28T09:43:41.470Z,96434.52
2018-08-28T09:46:10.316Z,96429.77
2018-08-28T09:48:39.194Z,96434.31
2018-08-28T09:51:07.924Z,96429.16
2018-08-28T09:53:36.618Z,96432.69
2018-08-28T09:56:05.460Z,96425.80
2018-08-28T09:58:34.407Z,96424.69
2018-08-28T10:01:08.097Z,96423.27
2018-08-28T10:03:37.492Z,96415.16
2018-08-28T10:06:06.632Z,96417.05
2018-08-28T10:08:36.277Z,96415.68
2018-08-28T10:11:05.131Z,96417.44
2018-08-28T10:13:34.322Z,96412.69
2018-08-28T10:16:03.297Z,96413.32
2018-08-28T10:18:32.071Z,96418.37
2018-08-28T10:21:00.974Z,96413.53
2018-08-28T10:23:29.608Z,96409.41
2018-08-28T10:25:58.497Z,96407.84
2018-08-28T10:28:27.401Z,96397.24
2018-08-28T10:30:56.120Z,96398.16
2018-08-28T10:33:24.936Z,96403.93
2018-08-28T10:35:53.619Z,96406.96
2018-08-28T10:38:22.833Z,96411.84
2018-08-28T10:40:51.815Z,96413.14
2018-08-28T10:43:20.470Z,96411.05
2018-08-28T10:45:49.920Z,96415.06
2018-08-28T10:48:18.556Z,96413.84
2018-08-28T10:50:47.401Z,96412.33
2018-08-28T10:53:16.083Z,96405.97
2018-08-28T10:55:45.650Z,96402.33
2018-08-28T10:58:14.768Z,96401.57
2018-08-28T11:00:43.691Z,96397.15
2018-08-28T11:03:13.160Z,96393.16
2018-08-28T11:05:43.217Z,96400.34
2018-08-28T11:08:11.753Z,96400.25
2018-08-28T11:10:40.375Z,96403.03
2018-08-28T11:13:09.097Z,96399.52
2018-08-28T11:15:37.715Z,96405.41
2018-08-28T11:18:06.490Z,96405.71
2018-08-28T11:20:35.016Z,96399.38
2018-08-28T11:23:03.701Z,96398.57
2018-08-28T11:25:32.159Z,96392.42
2018-08-28T11:28:00.705Z,96392.20
2018-08-28T11:30:29.479Z,96394.98
2018-08-28T11:32:58.092Z,96382.34
2018-08-28T11:35:26.632Z,96379.70
2018-08-28T11:37:55.468Z,96388.84
2018-08-28T11:40:24.748Z,96393.08
2018-08-28T11:42:53.895Z,96392.29
2018-08-28T11:45:22.535Z,96388.84
2018-08-28T11:47:51.468Z,96395.44
2018-08-28T11:50:19.883Z,96392.45
2018-08-28T11:52:48.636Z,96393.11
2018-08-28T11:55:17.221Z,96393.58
2018-08-28T11:57:45.788Z,96388.75
2018-08-28T12:00:16.284Z,96392.55
2018-08-28T12:02:44.903Z,96389.16
2018-08-28T12:05:13.476Z,96380.21
2018-08-28T12:07:42.423Z,96385.72
2018-08-28T12:10:13.469Z,96381.81
2018-08-28T12:12:42.820Z,96388.82
2018-08-28T12:15:11.600Z,96390.00
2018-08-28T12:17:40.561Z,96386.98
2018-08-28T12:20:10.268Z,96380.41
2018-08-28T12:22:38.968Z,96380.11
2018-08-28T12:25:08.455Z,96383.19
2018-08-28T12:27:37.516Z,96382.27
2018-08-28T12:30:07.664Z,96365.22
2018-08-28T12:32:36.208Z,96361.91
2018-08-28T12:35:05.550Z,96358.27
2018-08-28T12:37:34.088Z,96355.02
2018-08-28T12:40:03.356Z,96360.66
2018-08-28T12:42:32.986Z,96353.48
2018-08-28T12:45:02.260Z,96357.44
2018-08-28T12:47:31.969Z,96357.21
2018-08-28T12:50:00.675Z,96355.91
2018-08-28T12:52:30.156Z,96352.91
2018-08-28T12:54:59.701Z,96348.07
2018-08-28T12:57:28.295Z,96341.33
2018-08-28T12:59:56.924Z,96334.50
2018-08-28T13:02:25.790Z,96336.81
2018-08-28T13:04:54.325Z,96338.69
2018-08-28T13:07:22.952Z,96337.58
2018-08-28T13:09:51.912Z,96334.23
2018-08-28T13:12:20.525Z,96330.48
2018-08-28T13:14:49.176Z,96325.62
2018-08-28T13:17:17.699Z,96325.55
2018-08-28T13:19:46.248Z,96322.39
2018-08-28T13:22:15.150Z,96324.75
2018-08-28T13:24:43.841Z,96321.69
2018-08-28T13:27:12.851Z,96314.45
2018-08-28T13:29:41.420Z,96320.67
2018-08-28T13:32:10.157Z,96315.22
2018-08-28T13:34:38.912Z,96321.70
2018-08-28T13:37:07.566Z,96323.94
2018-08-28T13:39:36.549Z,96324.72
2018-08-28T13:42:05.188Z,96328.84
2018-08-28T13:44:33.737Z,96324.97
2018-08-28T13:47:02.419Z,96321.28
2018-08-28T13:49:31.461Z,96323.02
2018-08-28T13:52:00.363Z,96316.12
2018-08-28T13:54:29.096Z,96311.92
2018-08-28T13:56:57.501Z,96311.91
2018-08-28T13:59:26.448Z,96311.19
2018-08-28T14:01:55.023Z,96314.39
2018-08-28T14:04:23.587Z,96312.48
2018-08-28T14:06:52.211Z,96314.52
2018-08-28T14:09:20.752Z,96319.58
2018-08-28T14:11:49.317Z,96316.11
2018-08-28T14:14:17.903Z,96306.91
2018-08-28T14:16:46.540Z,96313.17
2018-08-28T14:19:15.054Z,96311.94
2018-08-28T14:21:44.016Z,96306.20
2018-08-28T14:24:12.582Z,96308.41
2018-08-28T14:26:41.285Z,96303.39
2018-08-28T14:29:10.300Z,96305.45
2018-08-28T14:31:38.984Z,96300.95
2018-08-28T14:34:07.564Z,96309.41
2018-08-28T14:36:36.132Z,96301.89
2018-08-28T14:39:05.891Z,96305.63
2018-08-28T14:41:34.923Z,96305.16
2018-08-28T14:44:04.388Z,96312.86
2018-08-28T14:46:32.979Z,96300.53
2018-08-28T14:49:01.561Z,96303.39
2018-08-28T14:51:30.195Z,96301.83
2018-08-28T14:53:58.792Z,96312.68
2018-08-28T14:56:27.422Z,96300.81
2018-08-28T14:58:56.241Z,96304.60
2018-08-28T15:01:24.781Z,96297.89
2018-08-28T15:03:53.470Z,96296.20
2018-08-28T15:06:22.092Z,96296.34
2018-08-28T15:08:50.636Z,96294.15
2018-08-28T15:11:20.332Z,96293.91
2018-08-28T15:13:49.369Z,96296.89
2018-08-28T15:16:18.426Z,96289.23
2018-08-28T15:18:47.281Z,96290.06
2018-08-28T15:21:16.772Z,96290.39
2018-08-28T15:23:45.819Z,96285.22
2018-08-28T15:26:14.515Z,96290.06
2018-08-28T15:28:43.167Z,96289.73
2018-08-28T15:31:20.715Z,96288.07
2018-08-28T15:33:50.320Z,96278.71
2018-08-28T15:36:20.415Z,96289.60
2018-08-28T15:38:49.200Z,96276.73
2018-08-28T15:41:18.077Z,96287.23
2018-08-28T15:43:47.816Z,96283.30
2018-08-28T15:46:16.555Z,96279.81
2018-08-28T15:48:45.296Z,96281.37
2018-08-28T15:51:14.511Z,96282.25
2018-08-28T15:53:44.195Z,96277.97
2018-08-28T15:56:13.166Z,96275.72
2018-08-28T15:58:42.451Z,96272.77
2018-08-28T16:01:12.321Z,96275.58
2018-08-28T16:03:42.125Z,96277.20
2018-08-28T16:06:11.156Z,96275.04
2018-08-28T16:08:40.173Z,96276.08
2018-08-28T16:11:08.901Z,96268.70
2018-08-28T16:13:37.546Z,96269.91
2018-08-28T16:16:06.255Z,96268.75
2018-08-28T16:21:41.700Z,96267.69
2018-08-28T16:24:10.311Z,96268.89
2018-08-28T16:26:38.921Z,96271.77
2018-08-28T16:29:07.875Z,96271.34
2018-08-28T16:31:36.675Z,96270.81
2018-08-28T16:34:06.360Z,96260.94
2018-08-28T16:36:34.878Z,96264.40
2018-08-28T16:39:03.753Z,96268.13
2018-08-28T16:41:32.336Z,96269.91
2018-08-28T16:44:00.862Z,96268.69
2018-08-28T16:46:29.460Z,96267.08
2018-08-28T16:48:58.553Z,96266.83
2018-08-28T16:51:27.415Z,96267.77
2018-08-28T16:53:56.210Z,96269.14
2018-08-28T16:56:25.115Z,96271.75
2018-08-28T16:58:53.839Z,96280.55
2018-08-28T17:01:22.737Z,96279.28
2018-08-28T17:03:52.071Z,96278.64
2018-08-28T17:06:20.716Z,96280.62
2018-08-28T17:08:49.510Z,96280.86
2018-08-28T17:11:18.268Z,96284.08
2018-08-28T17:13:46.820Z,96282.05
2018-08-28T17:16:15.646Z,96285.86
2018-08-28T17:18:44.510Z,96281.52
2018-08-28T17:21:13.335Z,96278.19
2018-08-28T17:23:41.952Z,96281.55
2018-08-28T17:26:10.569Z,96284.84
2018-08-28T17:28:40.472Z,96283.60
2018-08-28T17:31:10.241Z,96291.09
2018-08-28T17:33:39.075Z,96287.95
2018-08-28T17:36:07.776Z,96295.00
2018-08-28T17:38:36.544Z,96296.67
2018-08-28T17:41:06.572Z,96303.66
2018-08-28T17:43:35.275Z,96300.69
2018-08-28T17:46:04.179Z,96304.33
2018-08-28T17:48:32.932Z,96309.17
2018-08-28T17:51:02.121Z,96305.63
2018-08-28T17:53:31.024Z,96308.14
2018-08-28T17:55:59.576Z,96308.30
2018-08-28T17:58:29.040Z,96314.27
2018-08-28T18:00:57.705Z,96312.84
2018-08-28T18:03:26.991Z,96315.45
2018-08-28T18:05:55.657Z,96318.86
2018-08-28T18:08:24.520Z,96322.34
2018-08-28T18:10:54.616Z,96318.05
2018-08-28T18:13:24.020Z,96320.41
2018-08-28T18:15:52.556Z,96315.23
2018-08-28T18:18:21.552Z,96326.13
2018-08-28T18:20:50.493Z,96326.47
2018-08-28T18:23:19.107Z,96323.04
2018-08-28T18:25:47.854Z,96332.86
2018-08-28T18:28:17.152Z,96335.66
2018-08-28T18:30:45.965Z,96338.33
2018-08-28T18:33:16.535Z,96338.86
2018-08-28T18:35:45.914Z,96347.54
2018-08-28T18:38:14.504Z,96345.67
2018-08-28T18:40:43.236Z,96349.58
2018-08-28T18:43:12.040Z,96352.27
2018-08-28T18:45:41.803Z,96349.81
2018-08-28T18:48:10.508Z,96358.76
2018-08-28T18:50:39.364Z,96353.54
2018-08-28T18:53:08.432Z,96351.86
2018-08-28T18:55:37.147Z,96357.08
2018-08-28T18:58:06.244Z,96353.72
2018-08-28T19:00:35.011Z,96345.27
2018-08-28T19:03:03.852Z,96353.34
2018-08-28T19:05:32.996Z,96351.77
2018-08-28T19:08:02.564Z,96357.98
2018-08-28T19:10:31.297Z,96364.86
2018-08-28T19:12:59.976Z,96365.25
2018-08-28T19:15:28.627Z,96367.76
2018-08-28T19:17:57.543Z,96360.98
2018-08-28T19:20:26.887Z,96363.19
2018-08-28T19:22:55.518Z,96363.33
2018-08-28T19:25:25.103Z,96363.48
2018-08-28T19:27:53.724Z,96363.33
2018-08-28T19:30:22.264Z,96368.88
2018-08-28T19:32:51.136Z,96364.99
2018-08-28T19:35:19.851Z,96370.28
2018-08-28T19:37:48.509Z,96368.41
2018-08-28T19:40:17.132Z,96372.41
2018-08-28T19:42:45.900Z,96371.63
2018-08-28T19:45:14.519Z,96368.58
2018-08-28T19:47:43.484Z,96369.52
2018-08-28T19:50:12.324Z,96367.09
2018-08-28T19:52:40.992Z,96375.27
2018-08-28T19:55:10.042Z,96373.39
2018-08-28T19:57:39.004Z,96369.74
2018-08-28T20:00:09.101Z,96366.32
2018-08-28T20:02:38.800Z,96368.73
2018-08-28T20:05:07.492Z,96367.74
2018-08-28T20:07:36.616Z,96368.75
2018-08-28T20:10:06.056Z,96371.52
2018-08-28T20:12:34.980Z,96371.52
2018-08-28T20:15:04.143Z,96375.13
2018-08-28T20:17:32.742Z,96380.85
2018-08-28T20:20:01.732Z,96373.45
2018-08-28T20:22:30.908Z,96380.78
2018-08-28T20:25:00.187Z,96375.13
2018-08-28T20:27:29.244Z,96378.69
2018-08-28T20:29:58.087Z,96372.19
2018-08-28T20:32:27.549Z,96374.45
2018-08-28T20:34:56.828Z,96373.02
2018-08-28T20:37:26.192Z,96371.58
2018-08-28T20:39:55.696Z,96381.02
2018-08-28T20:42:24.512Z,96372.28
2018-08-28T20:44:53.569Z,96369.00
2018-08-28T20:47:22.532Z,96373.86
2018-08-28T20:49:51.187Z,96369.82
2018-08-28T20:52:20.251Z,96366.91
2018-08-28T20:54:49.184Z,96373.88
2018-08-28T20:57:17.847Z,96374.86
2018-08-28T20:59:46.675Z,96368.70
2018-08-28T21:02:15.425Z,96366.44
2018-08-28T21:04:44.182Z,96369.99
2018-08-28T21:07:13.613Z,96370.33
2018-08-28T21:09:43.368Z,96375.54
2018-08-28T21:12:12.009Z,96365.48
2018-08-28T21:14:41.253Z,96369.69
2018-08-28T21:17:09.980Z,96365.47
2018-08-28T21:19:38.731Z,96363.70
2018-08-28T21:22:07.371Z,96358.66
2018-08-28T21:24:36.031Z,96369.37
2018-08-28T21:27:04.735Z,96363.70
2018-08-28T21:29:33.511Z,96360.60
2018-08-28T21:32:02.084Z,96366.63
2018-08-28T21:34:31.725Z,96362.22
2018-08-28T21:37:01.251Z,96360.30
2018-08-28T21:39:30.136Z,96355.89
2018-08-28T21:41:58.894Z,96349.56
2018-08-28T21:44:28.140Z,96355.24
2018-08-28T21:46:56.859Z,96351.34
2018-08-28T21:49:26.148Z,96354.42
2018-08-28T21:51:54.820Z,96346.33
2018-08-28T21:54:23.528Z,96346.80
2018-08-28T21:56:52.059Z,96344.67
2018-08-28T21:59:20.676Z,96342.86
2018-08-28T22:01:49.588Z,96338.15
2018-08-28T22:04:18.497Z,96344.81
2018-08-28T22:06:55.887Z,96344.98
2018-08-28T22:09:24.877Z,96344.63
2018-08-28T22:11:54.853Z,96342.70
2018-08-28T22:14:23.869Z,96345.95
2018-08-28T22:16:52.748Z,96346.91
2018-08-28T22:22:24.402Z,96342.04
2018-08-28T22:24:54.568Z,96340.73
2018-08-28T22:27:23.569Z,96340.40
2018-08-28T22:29:52.128Z,96338.94
2018-08-28T22:32:20.898Z,96339.56
2018-08-28T22:34:50.941Z,96338.44
2018-08-28T22:37:20.644Z,96332.30
2018-08-28T22:39:49.425Z,96339.42
2018-08-28T22:42:18.371Z,96342.31
2018-08-28T22:44:47.227Z,96338.58
2018-08-28T22:47:17.621Z,96331.95
2018-08-28T22:49:46.614Z,96335.50
2018-08-28T22:52:15.303Z,96338.91
2018-08-28T22:54:44.001Z,96338.72
2018-08-28T22:57:13.895Z,96332.59
2018-08-28T22:59:43.383Z,96339.36
2018-08-28T23:02:12.240Z,96336.77
2018-08-28T23:04:41.617Z,96336.45
2018-08-28T23:07:10.841Z,96338.72
2018-08-28T23:09:39.563Z,96340.53
2018-08-28T23:12:08.871Z,96339.87
2018-08-28T23:14:37.711Z,96332.24
2018-08-28T23:17:06.465Z,96326.74
2018-08-28T23:19:35.732Z,96326.72
2018-08-28T23:22:04.347Z,96324.28
2018-08-28T23:24:33.145Z,96319.27
2018-08-28T23:27:01.753Z,96311.46
2018-08-28T23:29:30.521Z,96306.95
2018-08-28T23:32:00.220Z,96311.11
2018-08-28T23:34:29.460Z,96307.05
2018-08-28T23:36:58.452Z,96307.81
2018-08-28T23:39:27.515Z,96304.72
2018-08-28T23:41:56.710Z,96296.86
2018-08-28T23:44:26.327Z,96284.17
2018-08-28T23:46:56.224Z,96285.12
2018-08-28T23:49:25.261Z,96296.77
2018-08-28T23:51:54.342Z,96297.91
2018-08-28T23:54:23.241Z,96288.97
2018-08-28T23:56:52.694Z,96289.09
2018-08-28T23:59:22.460Z,96285.73
